Time;durP1;ratioP1;P1;durP2;ratioP2;P2;SDS_P1;SDS_P2;PMS_P1;PMS_P2;Temp;Humidity;BMP_temperature;BMP_pressure;BME280_temperature;BME280_humidity;BME280_pressure;Samples;Min_cycle;Max_cycle;Signal;HPM_P1;HPM_P2
2021/08/07 00:01:29;;;;;;;10.93;6.37;;;;;;;19.77;76.87;99817.72;1783962;80;20900;-76
2021/08/07 00:03:56;;;;;;;13.18;6.33;;;;;;;19.76;76.96;99813.89;1784124;80;20983;-76
2021/08/07 00:06:23;;;;;;;8.98;6.17;;;;;;;19.75;76.95;99807.74;1783995;80;20872;-75
2021/08/07 00:08:51;;;;;;;13.10;7.08;;;;;;;19.76;76.67;99811.23;1781918;80;21550;-75
2021/08/07 00:11:18;;;;;;;11.88;6.05;;;;;;;19.77;76.55;99814.23;1775382;80;20956;-74
2021/08/07 00:13:45;;;;;;;6.78;5.78;;;;;;;19.75;76.49;99818.39;1775590;80;20936;-74
2021/08/07 00:16:12;;;;;;;11.93;6.75;;;;;;;19.77;76.64;99831.53;1775278;80;20850;-74
2021/08/07 00:18:40;;;;;;;10.05;7.12;;;;;;;19.79;76.71;99833.52;1775363;80;21421;-74
2021/08/07 00:21:06;;;;;;;9.00;6.25;;;;;;;19.79;76.54;99826.36;1775301;80;21160;-74
2021/08/07 00:23:33;;;;;;;12.07;6.62;;;;;;;19.80;76.55;99828.52;1775612;80;21386;-74
2021/08/07 00:26:00;;;;;;;11.78;6.25;;;;;;;19.78;76.80;99824.69;1775511;80;21362;-75
2021/08/07 00:28:27;;;;;;;10.55;6.00;;;;;;;19.77;76.93;99827.03;1775702;80;20900;-74
2021/08/07 00:30:54;;;;;;;12.75;6.78;;;;;;;19.76;77.11;99823.20;1775442;80;20908;-74
2021/08/07 00:33:24;;;;;;;13.78;6.47;;;;;;;19.74;77.00;99819.38;1775400;80;21788;-74
2021/08/07 00:35:51;;;;;;;14.83;7.00;;;;;;;19.73;76.94;99816.39;1775685;80;20908;-74
2021/08/07 00:38:18;;;;;;;11.83;6.25;;;;;;;19.73;77.10;99818.23;1775344;80;20857;-74
2021/08/07 00:40:46;;;;;;;9.83;6.55;;;;;;;19.73;77.11;99826.21;1753285;80;21488;-73
2021/08/07 00:43:13;;;;;;;13.93;5.95;;;;;;;19.72;77.12;99815.23;1753314;80;20916;-73
2021/08/07 00:45:40;;;;;;;11.80;6.03;;;;;;;19.72;77.32;99824.54;1775290;80;21224;-74
2021/08/07 00:48:08;;;;;;;10.82;6.50;;;;;;;19.72;77.29;99833.37;1775224;80;21015;-75
2021/08/07 00:50:37;;;;;;;9.93;6.60;;;;;;;19.71;77.29;99831.70;1774326;80;20928;-75
2021/08/07 00:53:07;;;;;;;9.30;6.20;;;;;;;19.70;77.21;99827.86;1775399;80;21461;-75
2021/08/07 00:55:34;;;;;;;11.73;6.28;;;;;;;19.72;77.26;99828.52;1775633;80;20975;-75
2021/08/07 00:58:02;;;;;;;8.80;6.03;;;;;;;19.72;77.31;99835.17;1775364;80;21115;-75
2021/08/07 01:00:30;;;;;;;9.23;6.35;;;;;;;19.72;77.18;99833.84;1775270;80;21410;-76
2021/08/07 01:03:07;;;;;;;12.90;6.60;;;;;;;19.70;77.12;99834.52;1775419;80;20925;-77
2021/08/07 01:05:49;;;;;;;19.30;7.53;;;;;;;19.71;77.31;99834.36;1748742;80;20873;-75
2021/08/07 01:08:19;;;;;;;11.50;6.17;;;;;;;19.70;77.30;99827.39;1775325;80;20936;-76
2021/08/07 01:11:16;;;;;;;10.82;5.83;;;;;;;19.68;77.21;99827.52;1774911;80;22019;-75
2021/08/07 01:13:50;;;;;;;13.05;7.37;;;;;;;19.67;77.45;99832.52;1775192;80;20936;-75
2021/08/07 01:16:34;;;;;;;9.23;6.30;;;;;;;19.67;77.34;99840.50;1775626;80;21029;-74
2021/08/07 01:19:07;;;;;;;13.72;8.20;;;;;;;19.68;77.20;99842.66;1775172;80;21011;-74
2021/08/07 01:21:36;;;;;;;13.50;7.33;;;;;;;19.69;77.20;99839.02;1753403;80;20896;-73
2021/08/07 01:24:09;;;;;;;16.12;6.95;;;;;;;19.68;77.02;99844.81;1753912;80;21116;-74
2021/08/07 01:26:54;;;;;;;13.08;7.42;;;;;;;19.68;77.07;99836.83;1772188;80;21362;-74
2021/08/07 01:29:23;;;;;;;12.07;8.00;;;;;;;19.68;76.93;99838.16;1778822;80;20853;-74
2021/08/07 01:31:52;;;;;;;9.98;7.42;;;;;;;19.67;76.61;99844.49;1774687;80;20983;-73
2021/08/07 01:34:21;;;;;;;13.05;7.25;;;;;;;19.68;76.52;99840.82;1775141;80;20912;-75
2021/08/07 01:36:48;;;;;;;10.80;6.95;;;;;;;19.68;76.44;99834.17;1775624;80;21061;-75
2021/08/07 01:39:17;;;;;;;10.85;7.17;;;;;;;19.67;76.12;99829.86;1774660;80;20877;-74
2021/08/07 01:41:45;;;;;;;9.65;7.60;;;;;;;19.68;76.12;99842.66;1752940;80;21018;-74
2021/08/07 01:44:13;;;;;;;10.80;7.20;;;;;;;19.67;76.27;99854.28;1751393;80;20881;-74
2021/08/07 01:46:49;;;;;;;12.68;8.35;;;;;;;19.66;76.27;99864.09;1775637;80;20927;-74
2021/08/07 01:49:23;;;;;;;15.03;7.25;;;;;;;19.63;76.20;99864.45;1775484;80;21824;-74
2021/08/07 01:52:00;;;;;;;13.75;7.00;;;;;;;19.64;76.32;99873.25;1775225;80;20960;-76
2021/08/07 01:54:35;;;;;;;14.80;7.90;;;;;;;19.63;76.38;99876.42;1774553;80;21461;-74
2021/08/07 01:57:07;;;;;;;11.65;7.70;;;;;;;19.63;76.17;99867.59;1775057;80;21015;-75
2021/08/07 01:59:34;;;;;;;13.93;8.00;;;;;;;19.63;76.14;99864.92;1775786;80;20880;-75
2021/08/07 02:02:03;;;;;;;14.58;7.45;;;;;;;19.63;75.92;99866.26;1775267;80;21509;-75
2021/08/07 02:04:41;;;;;;;13.35;7.95;;;;;;;19.64;76.17;99870.09;1773975;80;21363;-74
2021/08/07 02:07:10;;;;;;;10.32;7.40;;;;;;;19.65;76.00;99874.90;1774358;80;21385;-74
2021/08/07 02:09:38;;;;;;;11.88;7.17;;;;;;;19.61;76.15;99869.61;1777106;80;20928;-74
2021/08/07 02:12:06;;;;;;;10.65;7.53;;;;;;;19.63;76.32;99871.09;1781162;80;21520;-76
2021/08/07 02:14:35;;;;;;;14.20;7.95;;;;;;;19.61;76.62;99873.60;1780083;80;21270;-75
2021/08/07 02:17:02;;;;;;;13.58;7.45;;;;;;;19.60;76.48;99878.07;1780916;80;21415;-75
2021/08/07 02:19:30;;;;;;;13.15;7.15;;;;;;;19.60;76.60;99871.42;1781018;80;20916;-76
2021/08/07 02:21:58;;;;;;;19.25;8.18;;;;;;;19.59;76.50;99881.74;1780960;80;20980;-76
2021/08/07 02:24:28;;;;;;;14.98;6.92;;;;;;;19.58;76.40;99881.39;1781282;80;21022;-75
2021/08/07 02:26:55;;;;;;;10.55;8.50;;;;;;;19.56;76.63;99876.73;1781033;80;21952;-75
2021/08/07 02:29:23;;;;;;;13.10;7.72;;;;;;;19.54;76.71;99874.78;1781166;80;20912;-75
2021/08/07 02:31:59;;;;;;;9.48;6.80;;;;;;;19.53;76.69;99878.42;1779094;80;20853;-76
2021/08/07 02:34:27;;;;;;;13.28;7.45;;;;;;;19.53;76.76;99879.75;1753056;80;20979;-74
2021/08/07 02:36:56;;;;;;;11.85;7.40;;;;;;;19.52;76.72;99885.23;1752729;80;20999;-75
2021/08/07 02:39:26;;;;;;;10.72;6.92;;;;;;;19.52;76.66;99891.41;1781186;80;21131;-76
2021/08/07 02:41:57;;;;;;;11.28;7.20;;;;;;;19.51;76.66;99894.22;1781335;80;20880;-74
2021/08/07 02:44:24;;;;;;;10.60;7.05;;;;;;;19.50;76.77;99887.22;1781113;80;20928;-74
2021/08/07 02:46:52;;;;;;;11.28;7.53;;;;;;;19.50;76.72;99884.56;1752779;80;20837;-75
2021/08/07 02:49:19;;;;;;;12.07;6.50;;;;;;;19.49;76.92;99893.55;1781075;80;20995;-75
2021/08/07 02:51:49;;;;;;;8.88;7.10;;;;;;;19.49;77.12;99902.36;1780946;80;21149;-75
2021/08/07 02:54:16;;;;;;;11.90;6.65;;;;;;;19.50;77.07;99899.19;1781130;80;20971;-73
2021/08/07 02:56:44;;;;;;;15.83;6.72;;;;;;;19.50;76.95;99897.38;1781300;80;20896;-73
2021/08/07 02:59:15;;;;;;;14.20;6.55;;;;;;;19.52;76.94;99899.38;1778243;80;20920;-74
2021/08/07 03:01:43;;;;;;;12.53;6.80;;;;;;;19.55;76.91;99893.71;1781343;80;20841;-75
2021/08/07 03:04:10;;;;;;;9.55;5.92;;;;;;;19.58;76.79;99893.87;1780905;80;21867;-75
2021/08/07 03:06:38;;;;;;;9.00;6.53;;;;;;;19.60;76.71;99884.72;1781448;80;20959;-75
2021/08/07 03:09:05;;;;;;;12.45;6.80;;;;;;;19.63;76.70;99872.43;1781078;80;21007;-76
2021/08/07 03:11:34;;;;;;;9.83;6.05;;;;;;;19.68;76.40;99867.93;1780602;80;20900;-75
2021/08/07 03:14:03;;;;;;;10.28;6.00;;;;;;;19.74;76.30;99859.78;1781066;80;20948;-75
2021/08/07 03:16:32;;;;;;;9.75;6.55;;;;;;;19.76;76.25;99846.63;1780612;80;21582;-75
2021/08/07 03:19:00;;;;;;;14.10;7.47;;;;;;;19.80;76.15;99843.97;1780964;80;20916;-75
2021/08/07 03:21:29;;;;;;;12.70;6.30;;;;;;;19.85;76.06;99834.99;1780975;80;20884;-74
2021/08/07 03:23:58;;;;;;;18.95;7.37;;;;;;;19.90;75.97;99834.48;1779694;80;20955;-75
2021/08/07 03:26:25;;;;;;;11.55;6.58;;;;;;;19.96;75.77;99827.62;1781181;80;20912;-75
2021/08/07 03:28:53;;;;;;;11.20;6.80;;;;;;;20.01;75.62;99834.58;1781056;80;21557;-75
2021/08/07 03:31:22;;;;;;;20.50;8.08;;;;;;;20.06;75.58;99834.91;1781338;80;20927;-74
2021/08/07 03:33:50;;;;;;;23.65;8.68;;;;;;;20.11;75.29;99835.21;1781086;80;20916;-74
2021/08/07 03:36:18;;;;;;;9.15;6.40;;;;;;;20.15;75.15;99832.53;1781362;80;20900;-75
2021/08/07 03:38:47;;;;;;;11.65;6.90;;;;;;;20.21;75.22;99842.97;1780861;80;20979;-74
2021/08/07 03:41:15;;;;;;;14.55;7.95;;;;;;;20.25;75.22;99846.47;1752634;80;21121;-76
2021/08/07 03:43:42;;;;;;;10.93;6.15;;;;;;;20.32;75.16;99852.41;1781480;80;20852;-75
2021/08/07 03:46:10;;;;;;;10.95;6.55;;;;;;;20.38;75.10;99859.72;1781393;80;20848;-72
2021/08/07 03:48:37;;;;;;;9.08;6.28;;;;;;;20.43;75.15;99852.88;1781219;80;21468;-72
2021/08/07 03:51:04;;;;;;;9.90;5.37;;;;;;;20.50;75.00;99848.50;1781366;80;20896;-72
2021/08/07 03:53:32;;;;;;;9.05;5.85;;;;;;;20.58;74.49;99855.63;1780868;80;21034;-72
2021/08/07 03:55:59;;;;;;;11.15;6.00;;;;;;;20.66;74.22;99846.27;1781211;80;20872;-73
2021/08/07 03:58:27;;;;;;;7.83;5.78;;;;;;;20.75;73.96;99846.22;1781155;80;20983;-72
2021/08/07 04:00:56;;;;;;;7.90;5.37;;;;;;;20.83;73.79;99850.13;1780624;80;20963;-74
2021/08/07 04:03:24;;;;;;;10.45;5.90;;;;;;;20.90;73.60;99847.93;1780922;80;20904;-73
2021/08/07 04:05:51;;;;;;;10.05;5.65;;;;;;;20.99;73.13;99842.03;1781485;80;22118;-74
2021/08/07 04:08:19;;;;;;;7.80;5.60;;;;;;;21.08;72.82;99831.63;1781406;80;20975;-74
2021/08/07 04:10:46;;;;;;;10.75;5.30;;;;;;;21.16;72.71;99840.04;1777992;80;20987;-74
2021/08/07 04:13:13;;;;;;;12.68;5.70;;;;;;;21.26;72.52;99845.96;1775314;80;20888;-74
2021/08/07 04:15:42;;;;;;;6.55;5.70;;;;;;;21.32;72.10;99839.91;1775470;80;21358;-74
2021/08/07 04:18:10;;;;;;;13.83;6.33;;;;;;;21.43;71.55;99832.02;1775329;80;21542;-74
2021/08/07 04:20:39;;;;;;;9.10;5.55;;;;;;;21.54;71.35;99836.05;1775384;80;20932;-74
2021/08/07 04:23:06;;;;;;;14.98;6.22;;;;;;;21.66;71.17;99839.93;1775339;80;21430;-75
2021/08/07 04:25:35;;;;;;;7.75;5.53;;;;;;;21.80;70.28;99829.44;1775203;80;20991;-74
2021/08/07 04:28:02;;;;;;;13.78;6.22;;;;;;;21.91;69.43;99827.13;1775391;80;20873;-75
2021/08/07 04:30:29;;;;;;;9.83;5.50;;;;;;;22.08;69.40;99830.44;1775367;80;21555;-74
2021/08/07 04:32:57;;;;;;;8.08;6.10;;;;;;;22.29;68.71;99811.49;1752242;80;20885;-74
2021/08/07 04:35:24;;;;;;;9.98;5.78;;;;;;;22.62;67.57;99815.03;1775334;80;21014;-73
2021/08/07 04:37:54;;;;;;;7.42;5.10;;;;;;;23.03;67.17;99815.22;1775312;80;20928;-74
2021/08/07 04:40:32;;;;;;;10.20;5.03;;;;;;;23.55;66.12;99815.30;1775162;80;21362;-74
2021/08/07 04:43:00;;;;;;;10.72;5.05;;;;;;;24.14;64.25;99808.61;1774663;80;21626;-75
2021/08/07 04:45:28;;;;;;;11.95;5.80;;;;;;;24.63;62.68;99798.66;1775442;80;20936;-76
2021/08/07 04:48:01;;;;;;;9.10;4.87;;;;;;;25.00;61.04;99801.27;1775326;80;21015;-74
2021/08/07 04:50:32;;;;;;;6.90;5.58;;;;;;;25.26;59.80;99788.91;1774658;80;20968;-74
2021/08/07 04:53:05;;;;;;;8.65;5.60;;;;;;;25.50;59.01;99787.92;1775493;80;20921;-76
2021/08/07 04:55:35;;;;;;;12.05;5.37;;;;;;;25.69;58.85;99789.74;1775349;80;21143;-75
2021/08/07 04:58:03;;;;;;;6.62;5.83;;;;;;;25.87;58.35;99783.69;1775369;80;21411;-76
2021/08/07 05:00:31;;;;;;;10.75;6.20;;;;;;;26.08;58.03;99785.79;1775633;80;20944;-75
2021/08/07 05:02:59;;;;;;;6.10;5.22;;;;;;;26.37;57.37;99783.89;1775317;80;20948;-75
2021/08/07 05:05:28;;;;;;;7.78;5.58;;;;;;;26.78;56.46;99785.81;1775734;80;21484;-75
2021/08/07 05:07:56;;;;;;;11.48;5.87;;;;;;;27.25;54.99;99782.22;1775464;80;20993;-74
2021/08/07 05:10:24;;;;;;;7.87;4.92;;;;;;;27.73;53.96;99788.78;1776629;80;21367;-82
2021/08/07 05:12:52;;;;;;;7.90;4.83;;;;;;;28.21;53.29;99785.28;1781013;80;20904;-74
2021/08/07 05:15:20;;;;;;;11.40;7.78;;;;;;;28.67;52.19;99778.42;1781043;80;20861;-74
2021/08/07 05:17:49;;;;;;;8.88;5.50;;;;;;;28.99;51.24;99777.57;1781129;80;21435;-75
2021/08/07 05:20:18;;;;;;;6.72;5.15;;;;;;;29.27;49.81;99780.14;1781185;80;20924;-75
2021/08/07 05:22:45;;;;;;;8.78;4.97;;;;;;;29.47;49.21;99779.23;1780974;80;21023;-74
2021/08/07 05:25:14;;;;;;;13.20;6.10;;;;;;;29.66;49.08;99779.92;1781028;80;20927;-75
2021/08/07 05:27:41;;;;;;;6.20;4.75;;;;;;;29.92;48.35;99781.27;1781026;80;20908;-74
2021/08/07 05:30:10;;;;;;;6.28;5.67;;;;;;;30.13;47.54;99780.34;1781018;80;20960;-74
2021/08/07 05:32:38;;;;;;;12.95;5.17;;;;;;;30.33;47.52;99776.69;1781153;80;21129;-73
2021/08/07 05:35:06;;;;;;;7.72;6.03;;;;;;;30.58;46.53;99779.01;1780928;80;20991;-75
2021/08/07 05:37:40;;;;;;;9.43;5.55;;;;;;;30.77;45.97;99776.91;1781382;80;21489;-74
2021/08/07 05:40:09;;;;;;;8.58;5.85;;;;;;;30.94;45.27;99773.39;1781018;80;21365;-75
2021/08/07 05:42:36;;;;;;;11.73;5.60;;;;;;;31.16;45.24;99780.22;1781214;80;20881;-75
2021/08/07 05:45:03;;;;;;;10.23;5.55;;;;;;;31.42;45.56;99778.73;1781111;80;21151;-75
2021/08/07 05:47:31;;;;;;;12.33;5.87;;;;;;;31.66;44.58;99775.25;1781314;80;21354;-75
2021/08/07 05:49:59;;;;;;;9.60;5.87;;;;;;;31.85;44.23;99778.99;1780974;80;21448;-76
2021/08/07 05:52:27;;;;;;;11.38;5.95;;;;;;;32.07;43.16;99777.10;1781127;80;20983;-75
2021/08/07 05:54:57;;;;;;;12.10;6.47;;;;;;;32.33;42.75;99783.62;1781067;80;20916;-75
2021/08/07 05:57:24;;;;;;;10.30;6.85;;;;;;;32.48;41.95;99781.57;1781382;80;21785;-75
2021/08/07 05:59:51;;;;;;;13.95;6.15;;;;;;;32.43;42.23;99785.60;1781027;80;20932;-75
2021/08/07 06:02:18;;;;;;;11.60;6.75;;;;;;;32.45;42.33;99784.00;1780751;80;20936;-76
2021/08/07 06:04:45;;;;;;;10.55;7.03;;;;;;;32.43;42.76;99788.31;1780957;80;21014;-76
2021/08/07 06:07:12;;;;;;;12.63;6.97;;;;;;;32.60;42.57;99789.05;1781405;80;20853;-76
2021/08/07 06:09:40;;;;;;;16.12;6.50;;;;;;;32.83;42.46;99789.23;1780990;80;21151;-76
2021/08/07 06:12:07;;;;;;;7.62;6.62;;;;;;;33.00;41.93;99787.74;1780994;80;20895;-76
2021/08/07 06:14:36;;;;;;;6.78;5.60;;;;;;;33.05;42.00;99784.23;1781019;80;21385;-76
2021/08/07 06:17:05;;;;;;;8.55;6.40;;;;;;;33.16;41.97;99793.31;1780662;80;20999;-75
2021/08/07 06:19:35;;;;;;;15.30;7.17;;;;;;;33.10;42.02;99791.09;1781139;80;21346;-75
2021/08/07 06:22:02;;;;;;;10.82;7.25;;;;;;;33.04;42.19;99784.78;1781312;80;21130;-71
2021/08/07 06:24:30;;;;;;;13.93;7.42;;;;;;;32.75;42.85;99784.30;1780871;80;20981;-72
2021/08/07 06:26:59;;;;;;;14.95;7.80;;;;;;;32.43;43.48;99785.06;1781043;80;20901;-72
2021/08/07 06:29:26;;;;;;;10.25;7.17;;;;;;;32.12;43.76;99777.69;1781116;80;21488;-72
2021/08/07 06:31:53;;;;;;;12.10;6.70;;;;;;;31.77;44.37;99778.38;1781248;80;20916;-71
2021/08/07 06:34:20;;;;;;;11.20;6.80;;;;;;;31.42;45.51;99776.56;1781077;80;21575;-72
2021/08/07 06:36:47;;;;;;;9.85;6.47;;;;;;;31.15;46.35;99774.53;1781284;80;21402;-72
2021/08/07 06:39:14;;;;;;;15.25;6.35;;;;;;;31.16;46.81;99778.87;1780953;80;20908;-72
2021/08/07 06:41:41;;;;;;;9.40;6.47;;;;;;;31.41;46.54;99783.82;1780771;80;20904;-72
2021/08/07 06:44:13;;;;;;;13.68;6.62;;;;;;;31.77;45.91;99770.23;1778466;80;21465;-72
2021/08/07 06:46:41;;;;;;;9.50;6.12;;;;;;;32.21;45.00;99774.80;1781044;80;21577;-71
2021/08/07 06:49:08;;;;;;;10.20;6.75;;;;;;;32.61;44.13;99780.36;1781242;80;21076;-75
2021/08/07 06:51:36;;;;;;;9.73;6.47;;;;;;;32.92;43.61;99782.78;1780930;80;20944;-74
2021/08/07 06:54:03;;;;;;;11.05;6.67;;;;;;;33.13;43.36;99785.66;1781456;80;20960;-73
2021/08/07 06:56:31;;;;;;;12.28;7.10;;;;;;;33.30;43.38;99781.44;1780998;80;20912;-74
2021/08/07 06:59:00;;;;;;;11.12;7.37;;;;;;;33.56;41.85;99775.59;1781253;80;21334;-74
2021/08/07 07:01:29;;;;;;;10.38;6.50;;;;;;;33.67;41.76;99768.33;1780999;80;20924;-72
2021/08/07 07:03:56;;;;;;;10.38;7.17;;;;;;;33.85;41.95;99778.18;1780990;80;20971;-70
2021/08/07 07:06:22;;;;;;;16.30;8.40;;;;;;;33.98;41.43;99774.70;1780932;80;20904;-74
2021/08/07 07:08:51;;;;;;;12.00;7.85;;;;;;;33.98;40.65;99765.17;1780909;80;20919;-77
2021/08/07 07:11:19;;;;;;;11.57;8.23;;;;;;;33.96;40.21;99767.34;1780984;80;22109;-81
2021/08/07 07:13:48;;;;;;;12.15;8.25;;;;;;;33.92;40.46;99758.88;1752556;80;20983;-80
2021/08/07 07:16:16;;;;;;;13.70;9.28;;;;;;;33.90;40.25;99761.05;1781449;80;20896;-76
2021/08/07 07:18:43;;;;;;;12.33;8.63;;;;;;;33.96;40.63;99761.34;1780864;80;20939;-71
2021/08/07 07:21:10;;;;;;;12.37;9.03;;;;;;;34.11;40.33;99768.77;1780995;80;20920;-74
2021/08/07 07:26:01;;;;;;;13.35;8.73;;;;;;;34.52;39.43;99761.19;1798563;79;22673;-76
2021/08/07 07:28:29;;;;;;;14.23;9.35;;;;;;;34.45;38.89;99760.91;1758502;80;21322;-77
2021/08/07 07:30:56;;;;;;;14.73;9.50;;;;;;;34.63;39.50;99766.94;1758275;80;21521;-75
2021/08/07 07:33:23;;;;;;;9.88;8.93;;;;;;;34.94;38.30;99762.84;1758257;81;21449;-76
2021/08/07 07:35:50;;;;;;;16.10;8.78;;;;;;;35.06;38.83;99757.37;1758264;81;20889;-72
2021/08/07 07:38:17;;;;;;;23.52;10.20;;;;;;;35.32;37.86;99766.05;1758196;81;20959;-76
2021/08/07 07:40:45;;;;;;;15.20;10.03;;;;;;;35.48;37.64;99761.62;1758357;80;20944;-71
2021/08/07 07:43:14;;;;;;;14.03;9.75;;;;;;;35.76;37.80;99756.63;1758218;81;21969;-72
2021/08/07 07:45:42;;;;;;;12.58;9.03;;;;;;;35.93;36.62;99748.09;1758194;81;21433;-72
2021/08/07 07:48:09;;;;;;;16.57;8.78;;;;;;;36.04;36.66;99742.84;1758223;81;20880;-73
2021/08/07 07:50:37;;;;;;;13.65;8.18;;;;;;;36.28;36.74;99749.78;1758149;81;20935;-71
2021/08/07 07:53:04;;;;;;;14.15;8.30;;;;;;;36.57;36.75;99745.47;1758226;81;20976;-72
2021/08/07 07:55:32;;;;;;;15.53;9.03;;;;;;;36.82;36.13;99739.81;1758380;80;21565;-72
2021/08/07 07:58:00;;;;;;;11.88;8.03;;;;;;;37.04;35.38;99741.22;1758196;80;20884;-72
2021/08/07 08:00:29;;;;;;;11.80;7.33;;;;;;;37.11;34.70;99753.48;1724998;83;20935;-72
2021/08/07 08:02:57;;;;;;;19.65;8.53;;;;;;;37.09;35.21;99765.26;1724660;83;21464;-71
2021/08/07 08:05:25;;;;;;;24.80;10.50;;;;;;;36.84;34.56;99792.80;1723670;83;21412;-74
2021/08/07 08:07:53;;;;;;;19.45;9.60;;;;;;;36.21;34.90;99812.64;1711045;84;21521;-73
2021/08/07 08:10:20;;;;;;;20.15;9.83;;;;;;;35.57;35.81;99834.14;1722327;83;20881;-75
2021/08/07 08:12:48;;;;;;;11.88;9.60;;;;;;;35.08;36.17;99838.84;1722084;82;20948;-73
2021/08/07 08:15:16;;;;;;;16.75;9.75;;;;;;;34.64;37.30;99829.84;1722325;83;21386;-74
2021/08/07 08:17:43;;;;;;;13.78;9.23;;;;;;;34.21;37.82;99830.02;1722294;83;20904;-73
2021/08/07 08:20:11;;;;;;;14.63;9.68;;;;;;;33.79;38.65;99828.20;1722482;83;21134;-83
2021/08/07 08:22:38;;;;;;;10.95;9.73;;;;;;;33.39;38.83;99828.78;1722253;83;21053;-76
2021/08/07 08:25:07;;;;;;;19.15;11.48;;;;;;;32.98;39.51;99848.85;1718258;83;20952;-77
2021/08/07 08:27:34;;;;;;;22.85;11.22;;;;;;;32.62;40.00;99856.68;1714691;83;21725;-77
2021/08/07 08:30:02;;;;;;;17.45;10.58;;;;;;;32.28;40.62;99849.22;1714994;83;20865;-77
2021/08/07 08:32:31;;;;;;;14.05;10.40;;;;;;;31.95;40.75;99838.25;1676841;83;21556;-73
2021/08/07 08:34:58;;;;;;;12.10;9.80;;;;;;;31.62;41.53;99832.39;1714593;83;20948;-75
2021/08/07 08:37:25;;;;;;;20.30;11.20;;;;;;;31.32;41.92;99814.58;1714137;83;20956;-80
2021/08/07 08:39:52;;;;;;;17.87;10.53;;;;;;;31.04;42.96;99812.83;1714346;83;20916;-78
2021/08/07 08:42:20;;;;;;;25.12;11.00;;;;;;;30.79;43.77;99810.47;1714228;83;20952;-79
2021/08/07 08:44:48;;;;;;;20.37;12.35;;;;;;;30.54;44.90;99823.86;1714079;83;22040;-81
2021/08/07 08:47:15;;;;;;;24.27;12.63;;;;;;;30.30;45.46;99862.37;1714181;83;21007;-80
2021/08/07 08:49:43;;;;;;;36.63;13.32;;;;;;;29.95;45.72;99854.34;1714453;83;20936;-83
2021/08/07 08:52:10;;;;;;;18.80;13.58;;;;;;;29.39;47.31;99857.11;1712475;83;20952;-82
2021/08/07 08:54:38;;;;;;;25.15;12.58;;;;;;;28.83;49.19;99853.31;1716916;83;21026;-76
2021/08/07 08:57:06;;;;;;;21.85;12.28;;;;;;;28.35;50.51;99860.92;1717547;83;21123;-81
2021/08/07 08:59:34;;;;;;;35.23;13.30;;;;;;;27.96;52.05;99877.87;1717121;82;21011;-87
2021/08/07 09:02:01;;;;;;;28.25;13.35;;;;;;;27.62;53.38;99875.20;1716796;82;20861;-86
2021/08/07 09:04:28;;;;;;;28.67;14.53;;;;;;;27.25;54.24;99865.69;1714709;83;20965;-82
2021/08/07 09:06:56;;;;;;;29.60;12.70;;;;;;;26.93;56.70;99867.57;1714828;83;21017;-78
2021/08/07 09:09:38;;;;;;;24.98;14.07;;;;;;;26.67;57.97;99862.13;1714505;83;21123;-81
2021/08/07 09:12:07;;;;;;;26.48;14.95;;;;;;;26.43;59.49;99865.02;1714570;83;20904;-80
2021/08/07 09:14:37;;;;;;;24.00;14.90;;;;;;;26.21;61.03;99869.90;1714238;83;20936;-81
2021/08/07 09:17:15;;;;;;;26.37;14.25;;;;;;;26.04;62.61;99876.77;1714656;83;20944;-84
2021/08/07 09:19:51;;;;;;;25.52;13.35;;;;;;;25.82;63.78;99892.30;1714597;82;21050;-91
2021/08/07 09:22:30;;;;;;;24.43;14.45;;;;;;;25.60;64.55;99905.14;1717801;82;21129;-86
2021/08/07 09:25:08;;;;;;;17.87;12.88;;;;;;;25.41;65.54;99904.95;1712714;83;20953;-88
2021/08/07 09:27:47;;;;;;;23.95;14.23;;;;;;;25.20;66.25;99899.77;1668556;84;20992;-84
2021/08/07 09:30:25;;;;;;;27.02;14.15;;;;;;;25.00;66.92;99896.51;1708910;84;20989;-85
2021/08/07 09:33:04;;;;;;;22.25;13.28;;;;;;;24.88;68.57;99919.61;1708826;84;21012;-89
2021/08/07 09:35:42;;;;;;;24.30;13.90;;;;;;;24.74;68.52;99921.94;1710351;83;21261;-82
2021/08/07 09:38:20;;;;;;;19.77;11.95;;;;;;;24.58;69.45;99902.49;1711863;81;20925;-89
2021/08/07 09:40:59;;;;;;;17.00;11.18;;;;;;;24.48;70.32;99899.88;1709563;84;20921;-91
2021/08/07 09:43:30;;;;;;;19.73;12.28;;;;;;;24.40;69.98;99924.98;1708800;84;20936;-90
2021/08/07 09:46:20;;;;;;;19.15;11.20;;;;;;;24.31;70.01;99939.58;1708790;84;20905;-85
2021/08/07 09:48:55;;;;;;;21.77;10.78;;;;;;;24.19;68.88;99942.00;1708745;83;21159;-83
2021/08/07 09:51:33;;;;;;;21.50;12.85;;;;;;;24.06;68.91;99935.22;1708509;83;21024;-85
2021/08/07 09:54:15;;;;;;;17.75;12.58;;;;;;;23.98;69.78;99934.84;1707931;84;21418;-86
2021/08/07 09:56:53;;;;;;;18.60;11.88;;;;;;;23.92;70.83;99928.44;1708430;83;20999;-83
2021/08/07 09:59:28;;;;;;;22.50;11.88;;;;;;;23.88;71.46;99923.64;1708572;83;21537;-87
2021/08/07 10:01:55;;;;;;;16.73;11.60;;;;;;;23.87;71.74;99942.91;1708526;83;21175;-86
2021/08/07 10:04:24;;;;;;;20.30;11.12;;;;;;;23.87;70.34;99936.73;1708219;83;21500;-84
2021/08/07 10:07:09;;;;;;;19.95;11.48;;;;;;;23.89;69.62;99933.35;1708701;83;20877;-84
2021/08/07 10:09:38;;;;;;;20.62;11.10;;;;;;;23.95;70.58;99932.58;1702527;84;20897;-88
2021/08/07 10:12:13;;;;;;;16.75;10.88;;;;;;;24.09;71.00;99919.56;1708233;84;20865;-87
2021/08/07 10:14:42;;;;;;;15.32;10.05;;;;;;;24.25;71.20;99918.92;1708713;83;21817;-85
2021/08/07 10:17:12;;;;;;;20.20;10.15;;;;;;;24.42;71.21;99917.56;1708641;83;20933;-86
2021/08/07 10:19:41;;;;;;;24.85;9.43;;;;;;;24.57;70.55;99916.13;1708914;84;20873;-88
2021/08/07 10:22:10;;;;;;;12.78;9.63;;;;;;;24.72;70.40;99925.33;1708439;83;20997;-84
2021/08/07 10:24:40;;;;;;;14.58;9.98;;;;;;;24.83;70.56;99926.08;1708407;83;20984;-82
2021/08/07 10:27:07;;;;;;;16.37;9.28;;;;;;;24.99;69.78;99926.22;1714199;83;21107;-83
2021/08/07 10:29:46;;;;;;;16.23;9.73;;;;;;;25.17;70.10;99931.02;1714209;83;21048;-86
2021/08/07 10:32:14;;;;;;;13.68;9.33;;;;;;;25.37;69.61;99927.05;1714337;83;20881;-82
2021/08/07 10:34:48;;;;;;;15.10;10.00;;;;;;;25.68;69.45;99930.94;1715096;83;20877;-81
2021/08/07 10:37:14;;;;;;;14.75;9.88;;;;;;;25.99;68.16;99941.05;1715238;83;21079;-88
2021/08/07 10:39:42;;;;;;;14.10;9.45;;;;;;;26.33;66.54;99934.56;1714199;83;21097;-86
2021/08/07 10:42:10;;;;;;;19.25;9.93;;;;;;;26.66;64.64;99931.77;1713993;83;20877;-87
2021/08/07 10:44:37;;;;;;;11.68;8.70;;;;;;;27.00;63.03;99931.59;1665492;83;21070;-84
2021/08/07 10:47:04;;;;;;;19.57;9.65;;;;;;;27.35;62.33;99935.22;1714616;83;20988;-91
2021/08/07 10:49:40;;;;;;;13.65;10.08;;;;;;;27.72;62.36;99917.79;1714296;83;20869;-88
2021/08/07 10:52:35;;;;;;;16.95;10.32;;;;;;;28.07;61.28;99920.25;1696286;83;21173;-93
2021/08/07 10:55:05;;;;;;;16.20;9.73;;;;;;;28.47;61.32;99903.63;1714103;83;20995;-87
2021/08/07 10:57:41;;;;;;;15.63;9.75;;;;;;;28.76;59.39;99906.56;1714584;83;21370;-87
2021/08/07 11:00:22;;;;;;;16.00;9.20;;;;;;;28.95;57.47;99908.70;1714255;83;20984;-88
2021/08/07 11:02:49;;;;;;;16.32;10.03;;;;;;;29.11;56.43;99908.05;1714213;83;21379;-92
2021/08/07 11:05:16;;;;;;;14.90;9.70;;;;;;;29.29;56.55;99903.63;1712472;83;21065;-87
2021/08/07 11:07:45;;;;;;;16.32;10.08;;;;;;;29.52;56.50;99900.92;1714427;83;21000;-93
2021/08/07 11:10:15;;;;;;;20.60;10.68;;;;;;;29.73;55.45;99909.02;1696166;83;20952;-90
2021/08/07 11:12:48;;;;;;;23.15;9.58;;;;;;;29.98;55.54;99910.64;1714433;83;20885;-88
2021/08/07 11:15:17;;;;;;;13.98;10.10;;;;;;;30.21;54.19;99908.41;1714263;83;21473;-82
2021/08/07 11:17:45;;;;;;;13.38;9.13;;;;;;;30.41;54.27;99903.16;1713955;83;21136;-81
2021/08/07 11:20:19;;;;;;;15.15;9.28;;;;;;;30.47;52.65;99899.50;1714335;83;20944;-77
2021/08/07 11:23:00;;;;;;;15.78;9.03;;;;;;;30.55;53.03;99895.88;1701297;83;20933;-78
2021/08/07 11:25:28;;;;;;;23.60;9.63;;;;;;;30.72;53.41;99892.39;1713887;83;20963;-79
2021/08/07 11:28:03;;;;;;;20.35;10.08;;;;;;;30.92;52.31;99896.02;1711274;83;20901;-78
2021/08/07 11:30:34;;;;;;;21.15;9.65;;;;;;;31.05;52.32;99887.58;1713740;83;21168;-80
2021/08/07 11:33:11;;;;;;;19.17;9.83;;;;;;;31.14;50.66;99884.75;1713222;83;20952;-77
2021/08/07 11:35:46;;;;;;;16.32;9.78;;;;;;;31.22;51.15;99894.37;1714050;83;20937;-82
2021/08/07 11:38:22;;;;;;;16.57;9.48;;;;;;;31.38;50.35;99895.44;1714205;83;20964;-78